Mid Ohio Valley Regional Airport
KPKB : now visible

Airfield :











YOU CAN JOIN US ON...

 
LOGIN :

Register | Disclaimer

   EN    FR    IT 

 









Legend :    VFR   Marginal VFR   IFR   Intensive IFR   Very Intensive IFR
Visi :
Ceiling :
>= 8 km
>= 3000ft
5 to 8 km
1000 to 3000 ft
1500m to 5 km
500 to 1000 ft
800 to 1500m
200 to 500 ft
< 800m
< 200 ft
Symbols :   Thunderstorms  Fog  Heavy snow  Heavy precipitations  Wind > 20 kt







- Airport Elevation : 858 ft
- IATA code : PKB


KPKB - Mid Ohio Valley Regional

CURRENT METAR :
  • 261553Z 29012G23KT 10SM -RA FEW017 BKN047 OVC065 13/11 A2955 RMK AO2 PK WND 30033/1530 SLP004 P0001 T01280106

EXPIRED METARs :
  • 261504Z 28013G20KT 10SM -RA FEW010 BKN015 OVC055 14/13 A2950 RMK AO2 P0001 T01440128
  • 261453Z 27010KT 6SM -RA BR SCT010 BKN049 OVC070 14/13 A2949 RMK AO2 SLP982 P0009 60036 T01440128 53005
  • 261353Z 27012KT 3SM -RA BR SCT008 BKN017 OVC060 14/12 A2945 RMK AO2 PK WND 23033/1336 SLP968 P0022 T01390122
  • 261327Z 22007KT 1 3/4SM RA BR FEW007 OVC014 16/14 A2942 RMK AO2 P0006 T01560139
  • 261300Z 21010G19KT 9SM -RA FEW010 OVC015 16/14 A2944 RMK AO2 P0000 T01560139

TAF KPKB
Valid from the 26 at 15:00 until the 27 at 12:00 UTC


261432Z 2615/2712 25012KT 5SM RA SCT008 OVC012
FM261600 27013G20KT 5SM RA BR OVC012
TEMPO 2617/2619 2SM RA
FM261900 28012G26KT 4SM SHRA BR OVC016
FM262200 29012G22KT P6SM BKN035
KZID FIR / North America



MET'MAP, your aeronautical weather chart ! - Copyright ORBIFLY December 2007 - Disclaimer

ORBIFLY MET'MAP TEAM :

Programming & Development : Alexandra Zaïnal
Concept & Development : Baudouin d'Aumeries
Co-Development & Prog : Marc-Olivier Méhu
Technical & hardware support : Manuel Goepfert

Contact : metmap@orbifly.com




SOURCES & CREDITS :

   NOAA       Earth
Advisory